createdAt,value
2023-03-25T00:01:25.690Z,99003.09
2023-03-25T00:03:54.390Z,99009.16
2023-03-25T00:06:22.899Z,99010.03
2023-03-25T00:08:51.900Z,99019.59
2023-03-25T00:11:20.384Z,99004.81
2023-03-25T00:13:49.182Z,98998.72
2023-03-25T00:16:19.093Z,98992.63
2023-03-25T00:18:49.885Z,98993.50
2023-03-25T00:21:19.008Z,98990.88
2023-03-25T00:23:47.637Z,98983.06
2023-03-25T00:26:16.357Z,98985.66
2023-03-25T00:28:44.877Z,98991.72
2023-03-25T00:31:15.152Z,98984.75
2023-03-25T00:33:43.855Z,98986.50
2023-03-25T00:36:14.754Z,98986.50
2023-03-25T00:38:45.550Z,98983.06
2023-03-25T00:41:18.173Z,98976.06
2023-03-25T00:43:46.664Z,98973.44
2023-03-25T00:46:16.259Z,98974.34
2023-03-25T00:48:45.067Z,98976.97
2023-03-25T00:51:19.359Z,98970.88
2023-03-25T00:53:48.531Z,98980.44
2023-03-25T00:56:16.999Z,98975.22
2023-03-25T00:58:45.943Z,98978.72
2023-03-25T01:01:16.619Z,98971.75
2023-03-25T01:03:45.927Z,98974.34
2023-03-25T01:06:18.249Z,98976.09
2023-03-25T01:08:47.226Z,98969.13
2023-03-25T01:11:20.105Z,98973.47
2023-03-25T01:13:52.152Z,98975.22
2023-03-25T01:16:20.689Z,98970.88
2023-03-25T01:18:49.198Z,98970.00
2023-03-25T01:21:19.559Z,98970.00
2023-03-25T01:23:48.116Z,98962.16
2023-03-25T01:26:17.373Z,98964.75
2023-03-25T01:28:46.177Z,98970.84
2023-03-25T01:31:15.940Z,98975.19
2023-03-25T01:33:44.478Z,98958.66
2023-03-25T01:36:14.457Z,98967.31
2023-03-25T01:38:44.340Z,98969.09
2023-03-25T01:41:12.792Z,98978.69
2023-03-25T01:43:41.674Z,98970.88
2023-03-25T01:46:15.047Z,98971.78
2023-03-25T01:48:45.356Z,98962.19
2023-03-25T01:51:17.413Z,98976.16
2023-03-25T01:53:48.206Z,98967.44
2023-03-25T01:56:21.078Z,98963.06
2023-03-25T01:58:52.726Z,98967.44
2023-03-25T02:01:22.366Z,98962.19
2023-03-25T02:03:55.286Z,98962.19
2023-03-25T02:06:28.558Z,98963.06
2023-03-25T02:08:59.993Z,98960.44
2023-03-25T02:11:29.571Z,98954.38
2023-03-25T02:14:03.510Z,98953.47
2023-03-25T02:16:42.331Z,98957.81
2023-03-25T02:19:47.828Z,98956.06
2023-03-25T02:22:47.637Z,98962.19
2023-03-25T02:25:39.646Z,98956.06
2023-03-25T02:28:25.748Z,98955.19
2023-03-25T02:31:32.398Z,98959.53
2023-03-25T02:34:33.730Z,98959.50
2023-03-25T02:37:26.419Z,98960.38
2023-03-25T02:40:01.506Z,98955.13
2023-03-25T02:42:39.212Z,98956.88
2023-03-25T02:45:13.485Z,98951.66
2023-03-25T02:47:48.391Z,98959.50
2023-03-25T02:50:23.248Z,98962.06
2023-03-25T02:52:59.650Z,98962.06
2023-03-25T02:55:33.427Z,98958.56
2023-03-25T02:58:09.277Z,98962.00
2023-03-25T03:00:38.706Z,98953.25
2023-03-25T03:03:09.063Z,98963.72
2023-03-25T03:05:41.046Z,98946.28
2023-03-25T03:08:22.713Z,98954.09
2023-03-25T03:11:03.608Z,98939.31
2023-03-25T03:13:45.450Z,98947.13
2023-03-25T03:16:22.158Z,98944.53
2023-03-25T03:18:58.834Z,98949.75
2023-03-25T03:21:34.536Z,98942.78
2023-03-25T03:24:08.684Z,98939.28
2023-03-25T03:26:43.317Z,98942.72
2023-03-25T03:29:15.837Z,98937.50
2023-03-25T03:32:06.317Z,98942.72
2023-03-25T03:34:44.947Z,98945.34
2023-03-25T03:37:16.563Z,98947.94
2023-03-25T03:39:47.144Z,98939.25
2023-03-25T03:42:22.159Z,98940.97
2023-03-25T03:44:55.542Z,98947.06
2023-03-25T03:47:29.294Z,98939.22
2023-03-25T03:50:00.902Z,98943.56
2023-03-25T03:52:34.493Z,98940.13
2023-03-25T03:55:10.785Z,98947.03
2023-03-25T03:57:44.632Z,98952.25
2023-03-25T04:00:19.156Z,98955.75
2023-03-25T04:02:51.817Z,98960.06
2023-03-25T04:05:23.354Z,98953.97
2023-03-25T04:07:57.078Z,98950.47
2023-03-25T04:10:34.796Z,98961.81
2023-03-25T04:13:09.336Z,98961.81
2023-03-25T04:15:38.616Z,98964.44
2023-03-25T04:18:07.050Z,98958.31
2023-03-25T04:20:36.564Z,98960.91
2023-03-25T04:23:06.346Z,98947.00
2023-03-25T04:25:34.767Z,98953.94
2023-03-25T04:28:03.197Z,98958.28
2023-03-25T04:30:32.990Z,98965.19
2023-03-25T04:33:01.713Z,98974.75
2023-03-25T04:35:33.123Z,98949.50
2023-03-25T04:38:01.706Z,98949.50
2023-03-25T04:40:30.222Z,98950.38
2023-03-25T04:42:58.703Z,98959.94
2023-03-25T04:45:28.705Z,98955.59
2023-03-25T04:47:58.893Z,98959.06
2023-03-25T04:50:29.081Z,98948.66
2023-03-25T04:53:00.415Z,98939.94
2023-03-25T04:55:29.845Z,98942.53
2023-03-25T04:57:58.295Z,98947.78
2023-03-25T05:00:28.199Z,98930.38
2023-03-25T05:03:02.046Z,98934.72
2023-03-25T05:05:30.791Z,98937.31
2023-03-25T05:07:59.291Z,98939.09
2023-03-25T05:10:29.585Z,98937.31
2023-03-25T05:13:01.991Z,98944.31
2023-03-25T05:15:32.618Z,98950.38
2023-03-25T05:18:03.059Z,98948.66
2023-03-25T05:20:34.704Z,98941.69
2023-03-25T05:23:03.384Z,98949.50
2023-03-25T05:25:34.327Z,98951.22
2023-03-25T05:28:05.844Z,98954.66
2023-03-25T05:30:39.245Z,98955.47
2023-03-25T05:33:10.273Z,98961.59
2023-03-25T05:35:38.856Z,98956.38
2023-03-25T05:38:08.825Z,98971.13
2023-03-25T05:40:37.898Z,98965.00
2023-03-25T05:43:06.766Z,98956.31
2023-03-25T05:45:36.399Z,98961.53
2023-03-25T05:48:05.254Z,98957.19
2023-03-25T05:50:35.250Z,98963.31
2023-03-25T05:53:04.083Z,98958.03
2023-03-25T05:55:33.236Z,98961.53
2023-03-25T05:58:06.956Z,98955.44
2023-03-25T06:00:37.280Z,98970.22
2023-03-25T06:03:08.028Z,98960.66
2023-03-25T06:05:40.298Z,98963.31
2023-03-25T06:08:08.734Z,98964.19
2023-03-25T06:10:37.182Z,98971.19
2023-03-25T06:13:05.611Z,98960.78
2023-03-25T06:15:39.077Z,98979.88
2023-03-25T06:18:07.686Z,98957.25
2023-03-25T06:20:36.138Z,98964.25
2023-03-25T06:23:06.489Z,98979.03
2023-03-25T06:25:35.018Z,98966.81
2023-03-25T06:28:04.021Z,98968.53
2023-03-25T06:30:32.456Z,98970.22
2023-03-25T06:33:03.134Z,98966.75
2023-03-25T06:35:31.826Z,98967.63
2023-03-25T06:38:01.326Z,98965.00
2023-03-25T06:40:39.730Z,98970.19
2023-03-25T06:43:08.454Z,98977.91
2023-03-25T06:46:15.676Z,98982.09
2023-03-25T06:49:03.017Z,98980.28
2023-03-25T06:51:31.576Z,98991.50
2023-03-25T06:53:59.984Z,98996.59
2023-03-25T06:56:29.785Z,98994.81
2023-03-25T06:58:58.276Z,99004.28
2023-03-25T07:01:26.744Z,98997.31
2023-03-25T07:03:55.217Z,99003.34
2023-03-25T07:06:25.073Z,99004.19
2023-03-25T07:08:53.542Z,98999.84
2023-03-25T07:11:26.738Z,99011.09
2023-03-25T07:13:56.519Z,98992.84
2023-03-25T07:16:27.185Z,99006.75
2023-03-25T07:18:56.855Z,98977.22
2023-03-25T07:21:25.592Z,98991.13
2023-03-25T07:23:55.922Z,98990.28
2023-03-25T07:26:24.354Z,98992.09
2023-03-25T07:28:52.889Z,98979.13
2023-03-25T07:31:22.901Z,98993.97
2023-03-25T07:33:52.374Z,98992.28
2023-03-25T07:36:21.933Z,98997.53
2023-03-25T07:38:50.508Z,98994.97
2023-03-25T07:41:18.949Z,98991.50
2023-03-25T07:44:05.067Z,98994.19
2023-03-25T07:46:35.777Z,98990.72
2023-03-25T07:49:04.307Z,98982.91
2023-03-25T07:51:33.205Z,99007.28
2023-03-25T07:54:05.325Z,99009.91
2023-03-25T07:56:34.559Z,99007.34
2023-03-25T07:59:03.205Z,99010.88
2023-03-25T08:01:31.697Z,99016.94
2023-03-25T08:04:01.630Z,99020.47
2023-03-25T08:06:30.481Z,99015.25
2023-03-25T08:08:58.977Z,99022.22
2023-03-25T08:11:27.526Z,99017.88
2023-03-25T08:13:56.009Z,99029.16
2023-03-25T08:16:24.596Z,99036.16
2023-03-25T08:18:53.862Z,99032.69
2023-03-25T08:21:25.270Z,99039.72
2023-03-25T08:23:58.305Z,99031.06
2023-03-25T08:26:27.166Z,99032.06
2023-03-25T08:28:58.118Z,99024.34
2023-03-25T08:31:34.256Z,99024.47
2023-03-25T08:34:04.084Z,99028.94
2023-03-25T08:36:33.975Z,99026.41
2023-03-25T08:39:07.729Z,99023.03
2023-03-25T08:41:37.817Z,99026.56
2023-03-25T08:44:06.501Z,99027.50
2023-03-25T08:46:35.112Z,99029.31
2023-03-25T08:49:03.900Z,99022.41
2023-03-25T08:51:33.809Z,99026.78
2023-03-25T08:54:02.504Z,99020.69
2023-03-25T08:56:30.953Z,99012.03
2023-03-25T08:58:59.491Z,99025.97
2023-03-25T09:01:27.953Z,99023.44
2023-03-25T09:03:57.828Z,99031.34
2023-03-25T09:06:26.869Z,99032.28
2023-03-25T09:08:57.295Z,99030.59
2023-03-25T09:11:36.014Z,99027.13
2023-03-25T09:14:05.803Z,99027.16
2023-03-25T09:16:34.987Z,99030.63
2023-03-25T09:19:04.360Z,99029.75
2023-03-25T09:21:32.820Z,99030.66
2023-03-25T09:24:02.641Z,99032.41
2023-03-25T09:26:31.100Z,99030.69
2023-03-25T09:29:00.878Z,99030.69
2023-03-25T09:31:29.399Z,99029.84
2023-03-25T09:33:57.829Z,99031.66
2023-03-25T09:36:26.380Z,99025.63
2023-03-25T09:38:54.948Z,99036.06
2023-03-25T09:41:47.211Z,99026.50
2023-03-25T09:44:23.136Z,99023.88
2023-03-25T09:46:51.916Z,99032.59
2023-03-25T09:49:25.116Z,99043.06
2023-03-25T09:51:56.112Z,99039.56
2023-03-25T09:54:29.724Z,99036.06
2023-03-25T09:57:06.472Z,99038.69
2023-03-25T09:59:41.668Z,99039.56
2023-03-25T10:02:27.827Z,99039.56
2023-03-25T10:05:18.557Z,99041.31
2023-03-25T10:08:04.680Z,99055.28
2023-03-25T10:10:38.670Z,99057.00
2023-03-25T10:13:20.018Z,99045.69
2023-03-25T10:15:58.120Z,99039.63
2023-03-25T10:18:43.848Z,99057.94
2023-03-25T10:21:17.613Z,99053.63
2023-03-25T10:23:56.148Z,99056.25
2023-03-25T10:26:28.417Z,99067.63
2023-03-25T10:29:04.111Z,99055.47
2023-03-25T10:31:38.976Z,99054.63
2023-03-25T10:34:15.219Z,99055.53
2023-03-25T10:36:49.300Z,99057.28
2023-03-25T10:39:20.279Z,99055.56
2023-03-25T10:41:53.051Z,99051.22
2023-03-25T10:44:27.274Z,99065.19
2023-03-25T10:46:59.399Z,99057.34
2023-03-25T10:49:31.507Z,99057.34
2023-03-25T10:52:01.038Z,99059.09
2023-03-25T10:54:32.893Z,99058.25
2023-03-25T10:57:04.622Z,99048.69
2023-03-25T10:59:41.247Z,99055.75
2023-03-25T11:02:15.596Z,99061.88
2023-03-25T11:04:45.733Z,99081.91
2023-03-25T11:07:20.000Z,99059.19
2023-03-25T11:09:48.661Z,99066.97
2023-03-25T11:12:23.406Z,99065.19
2023-03-25T11:14:57.631Z,99063.41
2023-03-25T11:17:27.976Z,99055.53
2023-03-25T11:20:00.819Z,99054.63
2023-03-25T11:22:31.400Z,99058.97
2023-03-25T11:25:03.975Z,99044.97
2023-03-25T11:27:47.303Z,99057.09
2023-03-25T11:30:20.075Z,99058.78
2023-03-25T11:32:59.229Z,99056.97
2023-03-25T11:35:29.867Z,99072.63
2023-03-25T11:38:00.353Z,99079.56
2023-03-25T11:40:31.228Z,99096.06
2023-03-25T11:43:01.923Z,99090.75
2023-03-25T11:45:37.673Z,99101.19
2023-03-25T11:48:12.806Z,99077.63
2023-03-25T11:50:52.172Z,99081.13
2023-03-25T11:53:22.220Z,99075.06
2023-03-25T11:55:55.004Z,99063.78
2023-03-25T11:58:28.582Z,99067.31
2023-03-25T12:01:04.110Z,99077.75
2023-03-25T12:03:35.406Z,99084.75
2023-03-25T12:06:08.095Z,99102.19
2023-03-25T12:08:45.496Z,99105.56
2023-03-25T12:11:17.995Z,99113.22
2023-03-25T12:13:58.753Z,99107.88
2023-03-25T12:16:37.089Z,99115.59
2023-03-25T12:19:16.312Z,99115.53
2023-03-25T12:22:00.831Z,99097.25
2023-03-25T12:24:44.592Z,99099.94
2023-03-25T12:27:26.805Z,99109.59
2023-03-25T12:30:04.901Z,99094.88
2023-03-25T12:32:40.972Z,99109.84
2023-03-25T12:35:23.408Z,99087.34
2023-03-25T12:38:19.398Z,99084.91
2023-03-25T12:40:59.761Z,99079.75
2023-03-25T12:43:38.436Z,99076.41
2023-03-25T12:46:21.836Z,99076.47
2023-03-25T12:49:05.172Z,99079.19
2023-03-25T12:51:47.112Z,99069.63
2023-03-25T12:54:29.586Z,99067.94
2023-03-25T12:57:08.351Z,99067.19
2023-03-25T12:59:53.836Z,99054.22
2023-03-25T13:02:39.277Z,99063.97
2023-03-25T13:05:18.783Z,99063.19
2023-03-25T13:07:51.635Z,99069.34
2023-03-25T13:10:22.028Z,99067.59
2023-03-25T13:12:53.761Z,99071.06
2023-03-25T13:15:27.604Z,99080.59
2023-03-25T13:18:00.126Z,99080.53
2023-03-25T13:20:34.532Z,99082.22
2023-03-25T13:23:07.258Z,99083.91
2023-03-25T13:25:45.823Z,99087.28
2023-03-25T13:28:17.740Z,99102.06
2023-03-25T13:30:49.550Z,99114.16
2023-03-25T13:33:21.873Z,99134.09
2023-03-25T13:35:56.264Z,99134.00
2023-03-25T13:38:30.201Z,99110.25
2023-03-25T13:41:09.591Z,99113.44
2023-03-25T13:43:46.692Z,99105.34
2023-03-25T13:46:19.676Z,99105.22
2023-03-25T13:48:52.647Z,99103.31
2023-03-25T13:51:22.692Z,99095.44
2023-03-25T13:53:54.751Z,99102.44
2023-03-25T13:57:05.344Z,99092.88
2023-03-25T14:00:00.951Z,99091.28
2023-03-25T14:02:50.223Z,99099.44
2023-03-25T14:05:54.500Z,99091.06
2023-03-25T14:09:01.722Z,99094.81
2023-03-25T14:11:35.638Z,99099.22
2023-03-25T14:14:09.575Z,99094.00
2023-03-25T14:16:42.494Z,99086.97
2023-03-25T14:19:14.436Z,99087.75
2023-03-25T14:21:45.972Z,99095.53
2023-03-25T14:24:21.300Z,99086.72
2023-03-25T14:26:52.537Z,99086.66
2023-03-25T14:29:33.534Z,99083.16
2023-03-25T14:32:08.355Z,99091.84
2023-03-25T14:34:40.636Z,99079.59
2023-03-25T14:37:19.148Z,99104.00
2023-03-25T14:39:49.285Z,99108.31
2023-03-25T14:42:29.914Z,99102.19
2023-03-25T14:45:42.146Z,99077.75
2023-03-25T14:48:26.239Z,99073.38
2023-03-25T14:51:09.607Z,99087.31
2023-03-25T14:53:39.558Z,99067.28
2023-03-25T14:56:18.386Z,99071.66
2023-03-25T14:58:52.046Z,99065.56
2023-03-25T15:01:22.344Z,99074.28
2023-03-25T15:03:51.135Z,99083.84
2023-03-25T15:06:30.114Z,99091.69
2023-03-25T15:09:00.937Z,99086.44
2023-03-25T15:11:34.698Z,99102.09
2023-03-25T15:14:06.745Z,99103.75
2023-03-25T15:16:37.335Z,99111.56
2023-03-25T15:19:09.260Z,99108.88
2023-03-25T15:22:10.894Z,99132.25
2023-03-25T15:24:40.763Z,99136.44
2023-03-25T15:27:24.992Z,99162.22
2023-03-25T15:30:03.669Z,99107.03
2023-03-25T15:32:44.213Z,99114.69
2023-03-25T15:35:33.121Z,99131.13
2023-03-25T15:38:17.572Z,99129.25
2023-03-25T15:41:02.406Z,99131.88
2023-03-25T15:44:14.592Z,99116.16
2023-03-25T15:46:57.034Z,99116.16
2023-03-25T15:49:51.430Z,99118.72
2023-03-25T15:52:36.751Z,99118.72
2023-03-25T15:55:12.654Z,99113.47
2023-03-25T15:57:46.124Z,99113.50
2023-03-25T16:00:23.322Z,99122.25
2023-03-25T16:02:56.340Z,99123.13
2023-03-25T16:05:25.666Z,99124.88
2023-03-25T16:07:54.350Z,99124.00
2023-03-25T16:10:31.111Z,99125.69
2023-03-25T16:13:03.391Z,99117.88
2023-03-25T16:15:37.054Z,99120.56
2023-03-25T16:18:08.428Z,99111.91
2023-03-25T16:20:37.675Z,99115.56
2023-03-25T16:23:08.344Z,99130.44
2023-03-25T16:25:40.059Z,99123.53
2023-03-25T16:28:17.230Z,99132.25
2023-03-25T16:30:51.302Z,99121.88
2023-03-25T16:33:26.003Z,99121.91
2023-03-25T16:35:58.589Z,99125.44
2023-03-25T16:38:27.509Z,99118.50
2023-03-25T16:41:02.258Z,99136.81
2023-03-25T16:43:31.855Z,99123.78
2023-03-25T16:46:03.520Z,99120.34
2023-03-25T16:48:34.763Z,99131.66
2023-03-25T16:51:10.083Z,99147.34
2023-03-25T16:53:40.991Z,99144.78
2023-03-25T16:56:24.830Z,99141.31
2023-03-25T16:58:59.942Z,99147.41
2023-03-25T17:01:34.014Z,99150.91
2023-03-25T17:04:12.571Z,99143.13
2023-03-25T17:06:44.350Z,99144.88
2023-03-25T17:09:17.755Z,99159.63
2023-03-25T17:11:48.818Z,99156.09
2023-03-25T17:14:20.685Z,99156.00
2023-03-25T17:16:53.172Z,99163.72
2023-03-25T17:19:24.413Z,99159.38
2023-03-25T17:22:02.787Z,99168.03
2023-03-25T17:24:41.715Z,99171.53
2023-03-25T17:27:21.955Z,99168.97
2023-03-25T17:29:53.728Z,99165.50
2023-03-25T17:32:24.167Z,99179.41
2023-03-25T17:35:06.496Z,99188.16
2023-03-25T17:37:35.204Z,99182.94
2023-03-25T17:40:11.630Z,99183.78
2023-03-25T17:42:41.550Z,99191.59
2023-03-25T17:45:15.183Z,99186.34
2023-03-25T17:47:45.075Z,99208.97
2023-03-25T17:50:19.075Z,99208.91
2023-03-25T17:52:48.560Z,99200.22
2023-03-25T17:55:17.336Z,99215.00
2023-03-25T17:57:46.507Z,99231.50
2023-03-25T18:00:18.580Z,99236.66
2023-03-25T18:02:49.228Z,99238.34
2023-03-25T18:05:17.850Z,99240.97
2023-03-25T18:07:46.417Z,99245.25
2023-03-25T18:10:18.461Z,99251.31
2023-03-25T18:12:47.200Z,99243.47
2023-03-25T18:15:15.697Z,99244.31
2023-03-25T18:17:44.193Z,99235.59
2023-03-25T18:20:21.079Z,99238.19
2023-03-25T18:22:49.615Z,99251.25
2023-03-25T18:25:18.099Z,99251.25
2023-03-25T18:27:51.902Z,99247.78
2023-03-25T18:30:26.167Z,99241.69
2023-03-25T18:32:54.611Z,99245.22
2023-03-25T18:35:24.696Z,99260.03
2023-03-25T18:37:53.183Z,99262.66
2023-03-25T18:40:24.254Z,99259.19
2023-03-25T18:42:53.116Z,99279.25
2023-03-25T18:45:22.995Z,99266.16
2023-03-25T18:47:52.262Z,99267.94
2023-03-25T18:50:28.818Z,99263.59
2023-03-25T18:52:58.003Z,99279.28
2023-03-25T18:55:28.595Z,99276.66
2023-03-25T18:57:57.707Z,99261.88
2023-03-25T19:00:29.214Z,99275.81
2023-03-25T19:02:58.356Z,99268.84
2023-03-25T19:05:29.015Z,99270.59
2023-03-25T19:07:57.571Z,99272.31
2023-03-25T19:10:27.679Z,99267.06
2023-03-25T19:12:56.313Z,99277.50
2023-03-25T19:15:27.846Z,99267.06
2023-03-25T19:17:58.472Z,99268.75
2023-03-25T19:20:32.130Z,99270.50
2023-03-25T19:23:01.005Z,99263.53
2023-03-25T19:25:29.993Z,99259.13
2023-03-25T19:27:58.416Z,99256.53
2023-03-25T19:30:26.868Z,99253.91
2023-03-25T19:32:57.115Z,99250.38
2023-03-25T19:35:26.484Z,99257.28
2023-03-25T19:37:57.090Z,99264.22
2023-03-25T19:40:28.161Z,99259.00
2023-03-25T19:42:58.759Z,99261.53
2023-03-25T19:45:28.374Z,99268.50
2023-03-25T19:47:57.245Z,99261.59
2023-03-25T19:50:27.743Z,99272.91
2023-03-25T19:52:58.368Z,99275.53
2023-03-25T19:55:27.271Z,99274.72
2023-03-25T19:57:55.866Z,99271.31
2023-03-25T20:00:27.285Z,99279.19
2023-03-25T20:02:58.751Z,99273.16
2023-03-25T20:05:28.547Z,99276.66
2023-03-25T20:07:58.466Z,99274.94
2023-03-25T20:10:28.825Z,99273.25
2023-03-25T20:12:57.811Z,99276.81
2023-03-25T20:15:27.231Z,99271.59
2023-03-25T20:17:56.696Z,99270.78
2023-03-25T20:20:25.739Z,99275.19
2023-03-25T20:22:55.522Z,99278.59
2023-03-25T20:25:25.414Z,99318.34
2023-03-25T20:27:53.947Z,99317.28
2023-03-25T20:30:22.494Z,99324.94
2023-03-25T20:32:50.912Z,99329.97
2023-03-25T20:35:21.255Z,99316.78
2023-03-25T20:37:51.956Z,99320.97
2023-03-25T20:40:27.736Z,99307.72
2023-03-25T20:43:04.498Z,99302.44
2023-03-25T20:45:33.069Z,99294.56
2023-03-25T20:48:01.650Z,99285.81
2023-03-25T20:50:34.105Z,99284.13
2023-03-25T20:53:02.535Z,99281.53
2023-03-25T20:55:31.155Z,99292.75
2023-03-25T20:57:59.618Z,99313.53
2023-03-25T21:00:29.827Z,99302.16
2023-03-25T21:02:58.526Z,99304.72
2023-03-25T21:05:28.187Z,99293.38
2023-03-25T21:07:57.710Z,99296.00
2023-03-25T21:10:27.216Z,99300.31
2023-03-25T21:12:55.745Z,99295.97
2023-03-25T21:15:24.183Z,99292.47
2023-03-25T21:17:53.974Z,99293.38
2023-03-25T21:20:23.961Z,99289.84
2023-03-25T21:22:52.549Z,99282.03
2023-03-25T21:25:21.092Z,99276.00
2023-03-25T21:27:49.614Z,99362.03
2023-03-25T21:30:18.209Z,99368.00
2023-03-25T21:32:46.686Z,99367.00
2023-03-25T21:35:16.552Z,99346.72
2023-03-25T21:37:45.095Z,99355.97
2023-03-25T21:40:14.509Z,99356.56
2023-03-25T21:42:45.682Z,99345.09
2023-03-25T21:45:16.422Z,99359.66
2023-03-25T21:47:45.436Z,99347.31
2023-03-25T21:50:16.448Z,99360.25
2023-03-25T21:52:48.045Z,99371.50
2023-03-25T21:55:17.513Z,99367.97
2023-03-25T21:57:47.731Z,99353.09
2023-03-25T22:00:19.501Z,99361.75
2023-03-25T22:02:48.420Z,99357.44
2023-03-25T22:05:17.989Z,99360.00
2023-03-25T22:07:47.768Z,99355.66
2023-03-25T22:10:16.213Z,99362.59
2023-03-25T22:12:44.670Z,99361.66
2023-03-25T22:15:13.161Z,99377.28
2023-03-25T22:17:41.737Z,99369.41
2023-03-25T22:20:12.117Z,99384.16
2023-03-25T22:22:42.166Z,99394.59
2023-03-25T22:25:12.170Z,99399.78
2023-03-25T22:27:40.554Z,99388.56
2023-03-25T22:30:10.108Z,99379.84
2023-03-25T22:32:38.530Z,99375.53
2023-03-25T22:35:08.845Z,99375.53
2023-03-25T22:37:37.765Z,99378.97
2023-03-25T22:40:08.567Z,99375.53
2023-03-25T22:42:38.472Z,99370.34
2023-03-25T22:45:08.513Z,99375.53
2023-03-25T22:47:36.998Z,99363.34
2023-03-25T22:50:06.643Z,99370.34
2023-03-25T22:52:35.324Z,99376.50
2023-03-25T22:55:03.933Z,99377.38
2023-03-25T22:57:32.395Z,99376.53
2023-03-25T23:00:02.655Z,99369.59
2023-03-25T23:02:31.294Z,99369.59
2023-03-25T23:04:59.935Z,99367.09
2023-03-25T23:07:28.388Z,99378.44
2023-03-25T23:09:56.865Z,99375.88
2023-03-25T23:12:27.154Z,99380.19
2023-03-25T23:14:57.275Z,99388.91
2023-03-25T23:17:27.719Z,99379.38
2023-03-25T23:19:56.206Z,99381.16
2023-03-25T23:22:25.105Z,99389.91
2023-03-25T23:24:53.979Z,99382.09
2023-03-25T23:27:24.221Z,99383.88
2023-03-25T23:29:52.634Z,99387.41
2023-03-25T23:32:21.440Z,99388.28
2023-03-25T23:34:51.455Z,99385.72
2023-03-25T23:37:19.913Z,99388.38
2023-03-25T23:39:48.301Z,99384.91
2023-03-25T23:42:16.777Z,99385.03
2023-03-25T23:44:45.324Z,99382.41
2023-03-25T23:47:13.814Z,99380.69
2023-03-25T23:49:44.062Z,99382.50
2023-03-25T23:52:14.541Z,99383.41
2023-03-25T23:54:43.018Z,99381.69
2023-03-25T23:57:11.485Z,99384.38
2023-03-25T23:59:39.898Z,99384.41
